createdAt,value
2019-03-01T00:00:17.182Z,5.99
2019-03-01T00:01:18.606Z,5.95
2019-03-01T00:02:19.996Z,5.88
2019-03-01T00:03:21.391Z,5.85
2019-03-01T00:04:22.797Z,5.81
2019-03-01T00:05:24.195Z,5.80
2019-03-01T00:06:25.599Z,5.83
2019-03-01T00:07:27.032Z,5.81
2019-03-01T00:08:28.409Z,5.73
2019-03-01T00:09:29.807Z,5.81
2019-03-01T00:10:31.210Z,5.67
2019-03-01T00:11:32.633Z,5.63
2019-03-01T00:12:34.027Z,5.70
2019-03-01T00:13:35.429Z,5.65
2019-03-01T00:14:36.836Z,5.62
2019-03-01T00:15:38.228Z,5.62
2019-03-01T00:16:39.642Z,5.60
2019-03-01T00:17:41.923Z,5.56
2019-03-01T00:18:43.341Z,5.52
2019-03-01T00:19:44.730Z,5.44
2019-03-01T00:20:46.153Z,5.44
2019-03-01T00:21:47.550Z,5.44
2019-03-01T00:22:48.942Z,5.42
2019-03-01T00:23:50.350Z,5.38
2019-03-01T00:24:51.752Z,5.33
2019-03-01T00:25:53.154Z,5.32
2019-03-01T00:26:54.593Z,5.26
2019-03-01T00:27:55.982Z,5.27
2019-03-01T00:28:57.385Z,5.30
2019-03-01T00:29:58.826Z,5.29
2019-03-01T00:31:00.244Z,5.23
2019-03-01T00:32:01.626Z,5.33
2019-03-01T00:33:03.027Z,5.29
2019-03-01T00:34:04.421Z,5.20
2019-03-01T00:35:05.818Z,5.12
2019-03-01T00:36:07.205Z,5.08
2019-03-01T00:37:08.595Z,5.15
2019-03-01T00:38:10.001Z,5.12
2019-03-01T00:39:11.463Z,5.15
2019-03-01T00:40:12.825Z,5.09
2019-03-01T00:41:14.249Z,5.05
2019-03-01T00:42:15.642Z,5.04
2019-03-01T00:43:17.035Z,5.06
2019-03-01T00:44:18.435Z,4.97
2019-03-01T00:45:19.810Z,4.99
2019-03-01T00:46:21.219Z,5.02
2019-03-01T00:47:22.626Z,4.94
2019-03-01T00:48:24.020Z,4.91
2019-03-01T00:49:25.418Z,4.91
2019-03-01T00:50:27.336Z,4.88
2019-03-01T00:51:28.748Z,4.88
2019-03-01T00:52:30.144Z,4.94
2019-03-01T00:53:31.569Z,4.91
2019-03-01T00:54:32.958Z,4.87
2019-03-01T00:55:34.354Z,4.83
2019-03-01T00:56:35.756Z,4.77
2019-03-01T00:57:37.126Z,4.79
2019-03-01T00:58:38.540Z,4.74
2019-03-01T00:59:39.982Z,4.69
2019-03-01T01:00:41.361Z,4.72
2019-03-01T01:01:42.775Z,4.72
2019-03-01T01:02:44.210Z,4.71
2019-03-01T01:03:45.617Z,4.67
2019-03-01T01:04:47.055Z,4.62
2019-03-01T01:05:48.488Z,4.72
2019-03-01T01:06:49.902Z,4.56
2019-03-01T01:07:51.313Z,4.61
2019-03-01T01:08:52.728Z,4.53
2019-03-01T01:09:54.136Z,4.59
2019-03-01T01:10:55.537Z,4.53
2019-03-01T01:11:56.948Z,4.49
2019-03-01T01:12:58.962Z,4.54
2019-03-01T01:14:00.351Z,4.44
2019-03-01T01:15:01.792Z,4.53
2019-03-01T01:16:03.190Z,4.49
2019-03-01T01:17:04.587Z,4.49
2019-03-01T01:18:06.015Z,4.43
2019-03-01T01:19:07.400Z,4.50
2019-03-01T01:20:08.797Z,4.36
2019-03-01T01:21:10.212Z,4.42
2019-03-01T01:22:12.363Z,4.39
2019-03-01T01:23:14.061Z,4.42
2019-03-01T01:24:15.587Z,4.46
2019-03-01T01:25:17.305Z,4.43
2019-03-01T01:26:18.741Z,4.46
2019-03-01T01:27:20.151Z,4.44
2019-03-01T01:28:21.583Z,4.42
2019-03-01T01:29:22.971Z,4.43
2019-03-01T01:30:24.391Z,4.42
2019-03-01T01:31:25.813Z,4.34
2019-03-01T01:32:27.216Z,4.35
2019-03-01T01:33:28.603Z,4.34
2019-03-01T01:34:30.003Z,4.38
2019-03-01T01:35:31.419Z,4.26
2019-03-01T01:36:32.815Z,4.34
2019-03-01T01:37:34.207Z,4.31
2019-03-01T01:38:35.597Z,4.28
2019-03-01T01:39:36.994Z,4.28
2019-03-01T01:40:38.407Z,4.13
2019-03-01T01:41:39.831Z,4.18
2019-03-01T01:42:41.224Z,4.04
2019-03-01T01:43:42.627Z,4.08
2019-03-01T01:44:44.028Z,4.02
2019-03-01T01:45:45.431Z,4.06
2019-03-01T01:46:46.860Z,4.04
2019-03-01T01:47:48.260Z,4.00
2019-03-01T01:48:49.653Z,3.86
2019-03-01T01:49:51.049Z,3.89
2019-03-01T01:50:52.444Z,3.95
2019-03-01T01:51:53.839Z,3.86
2019-03-01T01:52:55.263Z,3.86
2019-03-01T01:53:56.664Z,3.86
2019-03-01T01:54:58.066Z,3.96
2019-03-01T01:55:59.473Z,3.95
2019-03-01T01:57:00.861Z,3.92
2019-03-01T01:58:02.265Z,3.84
2019-03-01T01:59:03.667Z,3.84
2019-03-01T02:00:05.088Z,3.86
2019-03-01T02:01:06.481Z,3.86
2019-03-01T02:02:07.893Z,3.92
2019-03-01T02:03:09.304Z,3.84
2019-03-01T02:04:10.677Z,3.82
2019-03-01T02:05:12.081Z,3.92
2019-03-01T02:06:13.484Z,3.89
2019-03-01T02:07:14.894Z,4.02
2019-03-01T02:08:16.303Z,3.99
2019-03-01T02:09:17.744Z,3.98
2019-03-01T02:10:19.980Z,3.98
2019-03-01T02:11:21.385Z,3.88
2019-03-01T02:12:22.780Z,4.06
2019-03-01T02:13:24.182Z,4.07
2019-03-01T02:14:25.582Z,4.02
2019-03-01T02:15:27.000Z,4.02
2019-03-01T02:16:28.400Z,4.08
2019-03-01T02:17:29.802Z,4.13
2019-03-01T02:18:31.189Z,4.10
2019-03-01T02:19:32.642Z,4.17
2019-03-01T02:20:34.025Z,4.16
2019-03-01T02:21:35.431Z,4.14
2019-03-01T02:22:36.866Z,4.16
2019-03-01T02:23:40.074Z,4.20
2019-03-01T02:24:39.633Z,4.20
2019-03-01T02:25:41.031Z,4.18
2019-03-01T02:26:42.430Z,4.28
2019-03-01T02:27:43.843Z,4.28
2019-03-01T02:28:45.229Z,4.18
2019-03-01T02:29:46.630Z,4.25
2019-03-01T02:30:48.054Z,4.25
2019-03-01T02:31:49.488Z,4.17
2019-03-01T02:32:50.907Z,4.21
2019-03-01T02:33:52.305Z,4.28
2019-03-01T02:34:53.718Z,4.25
2019-03-01T02:35:55.115Z,4.11
2019-03-01T02:36:56.513Z,4.16
2019-03-01T02:37:57.970Z,4.11
2019-03-01T02:38:59.269Z,4.08
2019-03-01T02:40:00.711Z,4.11
2019-03-01T02:41:02.105Z,4.07
2019-03-01T02:42:05.308Z,4.06
2019-03-01T02:43:06.709Z,4.08
2019-03-01T02:44:08.101Z,4.06
2019-03-01T02:45:09.489Z,4.00
2019-03-01T02:46:10.919Z,4.07
2019-03-01T02:47:12.314Z,4.04
2019-03-01T02:48:13.702Z,4.02
2019-03-01T02:49:15.121Z,3.98
2019-03-01T02:50:16.550Z,4.06
2019-03-01T02:51:17.944Z,4.07
2019-03-01T02:52:19.344Z,3.98
2019-03-01T02:53:20.771Z,4.04
2019-03-01T02:54:22.177Z,4.02
2019-03-01T02:55:23.565Z,4.11
2019-03-01T02:56:24.957Z,4.06
2019-03-01T02:57:26.365Z,4.04
2019-03-01T02:58:27.767Z,4.02
2019-03-01T02:59:29.170Z,4.06
2019-03-01T03:00:30.575Z,4.08
2019-03-01T03:01:31.980Z,4.07
2019-03-01T03:02:33.372Z,4.06
2019-03-01T03:03:34.774Z,4.10
2019-03-01T03:04:36.176Z,4.13
2019-03-01T03:05:37.586Z,4.13
2019-03-01T03:06:38.981Z,4.21
2019-03-01T03:07:40.381Z,4.11
2019-03-01T03:08:41.776Z,4.11
2019-03-01T03:09:43.183Z,4.16
2019-03-01T03:10:44.572Z,4.13
2019-03-01T03:11:45.971Z,4.02
2019-03-01T03:12:47.354Z,4.00
2019-03-01T03:13:49.296Z,3.95
2019-03-01T03:14:50.693Z,3.88
2019-03-01T03:15:52.085Z,3.92
2019-03-01T03:16:53.483Z,3.84
2019-03-01T03:17:54.921Z,3.75
2019-03-01T03:18:56.327Z,3.80
2019-03-01T03:19:57.717Z,3.60
2019-03-01T03:20:59.117Z,3.70
2019-03-01T03:22:00.527Z,3.60
2019-03-01T03:23:01.948Z,3.49
2019-03-01T03:24:03.332Z,3.50
2019-03-01T03:25:04.737Z,3.42
2019-03-01T03:26:06.136Z,3.42
2019-03-01T03:27:07.544Z,3.39
2019-03-01T03:28:08.941Z,3.39
2019-03-01T03:29:10.357Z,3.42
2019-03-01T03:30:11.733Z,3.35
2019-03-01T03:31:13.146Z,3.35
2019-03-01T03:32:14.542Z,3.37
2019-03-01T03:33:15.952Z,3.37
2019-03-01T03:34:17.401Z,3.33
2019-03-01T03:35:18.789Z,3.20
2019-03-01T03:36:20.203Z,3.20
2019-03-01T03:37:21.604Z,3.26
2019-03-01T03:38:23.031Z,3.17
2019-03-01T03:39:24.425Z,3.13
2019-03-01T03:40:25.849Z,3.10
2019-03-01T03:41:27.287Z,3.08
2019-03-01T03:42:28.722Z,3.02
2019-03-01T03:43:30.093Z,3.07
2019-03-01T03:44:31.486Z,3.01
2019-03-01T03:45:32.893Z,2.99
2019-03-01T03:46:34.293Z,3.01
2019-03-01T03:47:35.701Z,2.95
2019-03-01T03:48:37.111Z,2.80
2019-03-01T03:49:38.514Z,2.83
2019-03-01T03:50:39.909Z,2.97
2019-03-01T03:51:41.313Z,2.89
2019-03-01T03:52:42.720Z,2.90
2019-03-01T03:53:44.150Z,2.99
2019-03-01T03:54:45.570Z,2.97
2019-03-01T03:55:46.976Z,2.95
2019-03-01T03:56:48.353Z,3.02
2019-03-01T03:57:49.751Z,3.02
2019-03-01T03:58:51.142Z,2.87
2019-03-01T03:59:52.541Z,2.86
2019-03-01T04:00:53.931Z,2.95
2019-03-01T04:01:55.746Z,2.95
2019-03-01T04:02:57.163Z,3.02
2019-03-01T04:03:58.575Z,2.94
2019-03-01T04:04:59.975Z,2.89
2019-03-01T04:06:01.373Z,2.89
2019-03-01T04:07:02.783Z,2.83
2019-03-01T04:08:04.278Z,2.87
2019-03-01T04:09:05.535Z,2.90
2019-03-01T04:10:06.961Z,2.80
2019-03-01T04:11:08.368Z,2.79
2019-03-01T04:12:09.773Z,2.79
2019-03-01T04:13:11.167Z,2.73
2019-03-01T04:14:12.577Z,2.79
2019-03-01T04:15:13.968Z,2.76
2019-03-01T04:16:15.388Z,2.73
2019-03-01T04:17:17.770Z,2.71
2019-03-01T04:18:19.180Z,2.77
2019-03-01T04:19:20.582Z,2.73
2019-03-01T04:20:21.988Z,2.76
2019-03-01T04:21:23.382Z,2.79
2019-03-01T04:22:24.774Z,2.83
2019-03-01T04:23:26.169Z,2.81
2019-03-01T04:24:27.589Z,2.90
2019-03-01T04:25:28.990Z,2.87
2019-03-01T04:26:30.410Z,2.81
2019-03-01T04:27:31.830Z,3.02
2019-03-01T04:28:33.239Z,2.97
2019-03-01T04:29:34.646Z,2.99
2019-03-01T04:30:36.062Z,2.95
2019-03-01T04:31:37.492Z,3.02
2019-03-01T04:32:38.906Z,3.04
2019-03-01T04:33:40.338Z,3.05
2019-03-01T04:34:41.754Z,3.05
2019-03-01T04:35:43.158Z,3.04
2019-03-01T04:36:44.559Z,3.01
2019-03-01T04:37:45.967Z,3.15
2019-03-01T04:38:47.389Z,3.19
2019-03-01T04:39:48.792Z,3.26
2019-03-01T04:40:50.932Z,3.19
2019-03-01T04:41:52.347Z,3.28
2019-03-01T04:42:53.757Z,3.34
2019-03-01T04:43:55.168Z,3.31
2019-03-01T04:44:56.559Z,3.37
2019-03-01T04:45:57.973Z,3.31
2019-03-01T04:46:59.369Z,3.39
2019-03-01T04:48:00.788Z,3.41
2019-03-01T04:49:02.837Z,3.37
2019-03-01T04:50:04.249Z,3.39
2019-03-01T04:51:05.641Z,3.37
2019-03-01T04:52:07.039Z,3.44
2019-03-01T04:53:08.497Z,3.44
2019-03-01T04:54:09.915Z,3.35
2019-03-01T04:55:11.333Z,3.42
2019-03-01T04:56:12.734Z,3.49
2019-03-01T04:57:14.148Z,3.52
2019-03-01T04:58:15.574Z,3.52
2019-03-01T04:59:17.003Z,3.52
2019-03-01T05:00:18.426Z,3.50
2019-03-01T05:01:19.816Z,3.46
2019-03-01T05:02:21.218Z,3.60
2019-03-01T05:03:22.620Z,3.59
2019-03-01T05:04:24.027Z,3.62
2019-03-01T05:05:25.446Z,3.70
2019-03-01T05:06:26.843Z,3.60
2019-03-01T05:07:28.257Z,3.59
2019-03-01T05:08:29.672Z,3.59
2019-03-01T05:09:31.086Z,3.72
2019-03-01T05:10:32.526Z,3.82
2019-03-01T05:11:33.933Z,3.80
2019-03-01T05:12:35.321Z,3.80
2019-03-01T05:13:36.771Z,3.77
2019-03-01T05:14:38.163Z,3.82
2019-03-01T05:15:39.579Z,3.75
2019-03-01T05:16:40.989Z,3.84
2019-03-01T05:17:42.368Z,3.81
2019-03-01T05:18:43.789Z,3.88
2019-03-01T05:19:45.213Z,3.89
2019-03-01T05:20:46.613Z,3.84
2019-03-01T05:21:48.009Z,3.86
2019-03-01T05:22:49.419Z,3.98
2019-03-01T05:23:50.828Z,3.93
2019-03-01T05:24:52.252Z,3.92
2019-03-01T05:25:53.653Z,3.99
2019-03-01T05:26:55.058Z,3.96
2019-03-01T05:27:56.481Z,4.06
2019-03-01T05:28:57.910Z,4.00
2019-03-01T05:29:59.356Z,4.06
2019-03-01T05:31:00.774Z,4.06
2019-03-01T05:32:02.144Z,4.14
2019-03-01T05:33:03.548Z,4.10
2019-03-01T05:34:04.942Z,4.13
2019-03-01T05:35:06.328Z,4.17
2019-03-01T05:36:07.724Z,4.13
2019-03-01T05:37:09.109Z,4.13
2019-03-01T05:38:10.540Z,4.25
2019-03-01T05:39:11.910Z,4.20
2019-03-01T05:40:13.297Z,4.24
2019-03-01T05:41:14.710Z,4.24
2019-03-01T05:42:16.111Z,4.28
2019-03-01T05:43:17.514Z,4.28
2019-03-01T05:44:18.901Z,4.34
2019-03-01T05:45:20.301Z,4.34
2019-03-01T05:46:21.694Z,4.29
2019-03-01T05:47:23.113Z,4.36
2019-03-01T05:48:24.505Z,4.26
2019-03-01T05:49:25.891Z,4.38
2019-03-01T05:50:27.278Z,4.36
2019-03-01T05:51:28.660Z,4.42
2019-03-01T05:52:30.070Z,4.46
2019-03-01T05:53:31.472Z,4.42
2019-03-01T05:54:32.875Z,4.42
2019-03-01T05:55:34.265Z,4.46
2019-03-01T05:56:35.674Z,4.39
2019-03-01T05:57:37.065Z,4.42
2019-03-01T05:58:38.486Z,4.35
2019-03-01T05:59:39.848Z,4.46
2019-03-01T06:00:41.244Z,4.47
2019-03-01T06:01:42.643Z,4.46
2019-03-01T06:02:44.038Z,4.46
2019-03-01T06:03:45.447Z,4.43
2019-03-01T06:04:46.851Z,4.59
2019-03-01T06:05:48.267Z,4.44
2019-03-01T06:06:49.674Z,4.46
2019-03-01T06:07:51.073Z,4.43
2019-03-01T06:08:52.470Z,4.49
2019-03-01T06:09:53.862Z,4.49
2019-03-01T06:10:55.997Z,4.38
2019-03-01T06:11:56.593Z,4.43
2019-03-01T06:12:57.981Z,4.43
2019-03-01T06:13:59.365Z,4.44
2019-03-01T06:15:00.807Z,4.38
2019-03-01T06:16:02.255Z,4.28
2019-03-01T06:17:03.683Z,4.26
2019-03-01T06:18:05.094Z,4.25
2019-03-01T06:19:06.493Z,4.38
2019-03-01T06:20:07.898Z,4.26
2019-03-01T06:21:09.287Z,4.26
2019-03-01T06:22:10.680Z,4.26
2019-03-01T06:23:12.080Z,4.26
2019-03-01T06:24:13.454Z,4.28
2019-03-01T06:25:14.868Z,4.25
2019-03-01T06:26:16.277Z,4.21
2019-03-01T06:27:17.678Z,4.16
2019-03-01T06:28:19.074Z,4.11
2019-03-01T06:29:20.506Z,4.10
2019-03-01T06:30:21.935Z,4.06
2019-03-01T06:31:23.331Z,4.13
2019-03-01T06:32:24.720Z,4.21
2019-03-01T06:33:26.113Z,4.26
2019-03-01T06:34:27.568Z,4.25
2019-03-01T06:35:28.966Z,4.29
2019-03-01T06:36:30.365Z,4.35
2019-03-01T06:37:31.775Z,4.31
2019-03-01T06:38:33.179Z,4.38
2019-03-01T06:39:34.619Z,4.39
2019-03-01T06:40:36.010Z,4.47
2019-03-01T06:41:37.398Z,4.36
2019-03-01T06:42:38.792Z,4.42
2019-03-01T06:43:40.193Z,4.47
2019-03-01T06:44:41.586Z,4.49
2019-03-01T06:45:42.992Z,4.50
2019-03-01T06:46:44.388Z,4.51
2019-03-01T06:47:45.786Z,4.47
2019-03-01T06:48:47.189Z,4.50
2019-03-01T06:49:48.610Z,4.50
2019-03-01T06:50:50.033Z,4.56
2019-03-01T06:51:51.464Z,4.57
2019-03-01T06:52:52.865Z,4.59
2019-03-01T06:53:54.278Z,4.68
2019-03-01T06:54:55.660Z,4.72
2019-03-01T06:55:57.078Z,4.75
2019-03-01T06:56:58.487Z,4.77
2019-03-01T06:57:59.877Z,4.75
2019-03-01T06:59:01.286Z,4.83
2019-03-01T07:00:02.683Z,4.83
2019-03-01T07:01:04.083Z,4.87
2019-03-01T07:02:05.482Z,4.83
2019-03-01T07:03:06.904Z,4.90
2019-03-01T07:04:08.308Z,4.88
2019-03-01T07:05:09.722Z,4.94
2019-03-01T07:06:11.146Z,4.94
2019-03-01T07:07:12.552Z,4.99
2019-03-01T07:08:13.960Z,4.99
2019-03-01T07:09:15.362Z,5.01
2019-03-01T07:10:16.750Z,4.94
2019-03-01T07:11:18.163Z,5.04
2019-03-01T07:12:19.564Z,5.08
2019-03-01T07:13:20.962Z,5.14
2019-03-01T07:14:22.362Z,5.08
2019-03-01T07:15:23.753Z,5.04
2019-03-01T07:16:25.161Z,5.11
2019-03-01T07:17:26.559Z,5.22
2019-03-01T07:18:27.991Z,5.15
2019-03-01T07:19:29.390Z,5.11
2019-03-01T07:20:30.798Z,5.15
2019-03-01T07:21:32.192Z,5.19
2019-03-01T07:22:33.589Z,5.19
2019-03-01T07:23:36.949Z,5.22
2019-03-01T07:24:36.352Z,5.29
2019-03-01T07:25:37.751Z,5.29
2019-03-01T07:26:39.140Z,5.26
2019-03-01T07:27:40.543Z,5.30
2019-03-01T07:28:41.935Z,5.38
2019-03-01T07:29:43.330Z,5.37
2019-03-01T07:30:44.724Z,5.41
2019-03-01T07:31:46.176Z,5.41
2019-03-01T07:32:47.572Z,5.42
2019-03-01T07:33:48.975Z,5.42
2019-03-01T07:34:50.368Z,5.38
2019-03-01T07:35:51.771Z,5.42
2019-03-01T07:36:53.166Z,5.40
2019-03-01T07:37:54.553Z,5.47
2019-03-01T07:38:55.953Z,5.51
2019-03-01T07:39:57.367Z,5.65
2019-03-01T07:40:59.512Z,5.63
2019-03-01T07:42:00.127Z,5.63
2019-03-01T07:43:01.513Z,5.59
2019-03-01T07:44:02.914Z,5.73
2019-03-01T07:45:04.309Z,5.66
2019-03-01T07:46:05.711Z,5.59
2019-03-01T07:47:07.105Z,5.67
2019-03-01T07:48:08.508Z,5.69
2019-03-01T07:49:09.910Z,5.63
2019-03-01T07:50:11.294Z,5.73
2019-03-01T07:51:12.688Z,5.73
2019-03-01T07:52:14.092Z,5.74
2019-03-01T07:53:15.486Z,5.80
2019-03-01T07:54:18.018Z,5.69
2019-03-01T07:55:18.258Z,5.77
2019-03-01T07:56:19.675Z,5.77
2019-03-01T07:57:21.068Z,5.77
2019-03-01T07:58:25.637Z,5.75
2019-03-01T07:59:24.112Z,5.70
2019-03-01T08:00:25.232Z,5.78
2019-03-01T08:01:29.218Z,5.78
2019-03-01T08:02:28.020Z,5.87
2019-03-01T08:03:29.439Z,5.78
2019-03-01T08:04:30.861Z,5.78
2019-03-01T08:05:32.253Z,5.81
2019-03-01T08:06:33.647Z,5.83
2019-03-01T08:07:35.063Z,5.83
2019-03-01T08:08:38.830Z,5.85
2019-03-01T08:09:37.836Z,5.80
2019-03-01T08:10:39.247Z,5.80
2019-03-01T08:11:40.636Z,5.84
2019-03-01T08:12:42.517Z,5.90
2019-03-01T08:13:43.407Z,5.90
2019-03-01T08:14:44.803Z,5.87
2019-03-01T08:15:46.793Z,5.92
2019-03-01T08:16:48.994Z,5.90
2019-03-01T08:17:50.422Z,5.96
2019-03-01T08:18:51.822Z,5.92
2019-03-01T08:19:54.965Z,5.95
2019-03-01T08:20:54.589Z,5.95
2019-03-01T08:21:55.997Z,5.99
2019-03-01T08:22:59.834Z,5.98
2019-03-01T08:23:58.776Z,5.96
2019-03-01T08:25:00.255Z,6.01
2019-03-01T08:26:03.277Z,6.08
2019-03-01T08:27:06.556Z,6.14
2019-03-01T08:28:04.266Z,6.11
2019-03-01T08:29:05.665Z,6.14
2019-03-01T08:30:10.277Z,6.14
2019-03-01T08:31:09.844Z,6.10
2019-03-01T08:32:09.812Z,6.19
2019-03-01T08:33:11.236Z,6.19
2019-03-01T08:34:14.501Z,6.25
2019-03-01T08:35:14.005Z,6.24
2019-03-01T08:36:15.409Z,6.27
2019-03-01T08:37:17.656Z,6.32
2019-03-01T08:38:18.913Z,6.28
2019-03-01T08:39:20.324Z,6.27
2019-03-01T08:40:21.731Z,6.35
2019-03-01T08:41:24.973Z,6.27
2019-03-01T08:42:24.513Z,6.27
2019-03-01T08:43:25.948Z,6.30
2019-03-01T08:44:27.353Z,6.30
2019-03-01T08:45:29.759Z,6.33
2019-03-01T08:46:30.140Z,6.42
2019-03-01T08:47:31.566Z,6.35
2019-03-01T08:48:33.671Z,6.42
2019-03-01T08:49:34.320Z,6.50
2019-03-01T08:50:35.732Z,6.43
2019-03-01T08:51:37.138Z,6.43
2019-03-01T08:52:40.443Z,6.54
2019-03-01T08:53:39.926Z,6.58
2019-03-01T08:54:41.399Z,6.55
2019-03-01T08:55:42.823Z,6.53
2019-03-01T08:56:46.371Z,6.57
2019-03-01T08:57:45.635Z,6.60
2019-03-01T08:58:47.043Z,6.55
2019-03-01T08:59:48.467Z,6.58
2019-03-01T09:00:59.047Z,6.60
2019-03-01T09:01:51.227Z,6.58
2019-03-01T09:02:52.665Z,6.64
2019-03-01T09:03:54.077Z,6.58
2019-03-01T09:04:55.475Z,6.69
2019-03-01T09:05:56.878Z,6.69
2019-03-01T09:06:58.314Z,6.69
2019-03-01T09:07:59.717Z,6.69
2019-03-01T09:09:01.134Z,6.64
2019-03-01T09:10:02.544Z,6.64
2019-03-01T09:11:05.498Z,6.71
2019-03-01T09:12:05.355Z,6.69
2019-03-01T09:13:06.755Z,6.68
2019-03-01T09:14:08.122Z,6.72
2019-03-01T09:15:09.560Z,6.72
2019-03-01T09:16:10.936Z,6.69
2019-03-01T09:17:12.344Z,6.71
2019-03-01T09:18:14.607Z,6.68
2019-03-01T09:19:15.796Z,6.72
2019-03-01T09:20:17.200Z,6.78
2019-03-01T09:21:18.602Z,6.86
2019-03-01T09:22:20.000Z,6.83
2019-03-01T09:23:25.339Z,6.94
2019-03-01T09:24:25.786Z,6.94
2019-03-01T09:25:24.110Z,6.94
2019-03-01T09:26:25.511Z,6.97
2019-03-01T09:27:30.056Z,7.09
2019-03-01T09:28:28.275Z,7.08
2019-03-01T09:29:29.685Z,7.18
2019-03-01T09:30:31.069Z,7.23
2019-03-01T09:31:32.461Z,7.15
2019-03-01T09:32:34.787Z,7.19
2019-03-01T09:33:35.212Z,7.33
2019-03-01T09:34:36.633Z,7.18
2019-03-01T09:35:39.608Z,7.29
2019-03-01T09:36:40.125Z,7.27
2019-03-01T09:37:41.535Z,7.32
2019-03-01T09:38:43.691Z,7.29
2019-03-01T09:39:44.306Z,7.33
2019-03-01T09:40:45.695Z,7.30
2019-03-01T09:41:47.096Z,7.12
2019-03-01T09:42:51.259Z,7.23
2019-03-01T09:43:49.860Z,7.27
2019-03-01T09:44:51.252Z,7.21
2019-03-01T09:45:52.653Z,7.23
2019-03-01T09:46:54.042Z,7.27
2019-03-01T09:47:55.440Z,7.26
2019-03-01T09:48:56.848Z,7.23
2019-03-01T09:50:00.226Z,7.23
2019-03-01T09:50:59.602Z,7.15
2019-03-01T09:52:01.043Z,7.30
2019-03-01T09:53:02.432Z,7.30
2019-03-01T09:54:06.463Z,7.34
2019-03-01T09:55:05.571Z,7.23
2019-03-01T09:56:09.596Z,7.32
2019-03-01T09:57:07.923Z,7.19
2019-03-01T09:58:09.327Z,7.27
2019-03-01T09:59:10.729Z,7.29
2019-03-01T10:00:12.141Z,7.33
2019-03-01T10:01:13.540Z,7.30
2019-03-01T10:02:14.949Z,7.30
2019-03-01T10:03:16.348Z,7.36
2019-03-01T10:04:17.748Z,7.30
2019-03-01T10:05:19.144Z,7.37
2019-03-01T10:06:20.550Z,7.32
2019-03-01T10:07:21.951Z,7.34
2019-03-01T10:08:23.586Z,7.44
2019-03-01T10:09:25.224Z,7.42
2019-03-01T10:10:26.616Z,7.42
2019-03-01T10:11:28.011Z,7.41
2019-03-01T10:12:29.422Z,7.39
2019-03-01T10:13:30.822Z,7.33
2019-03-01T10:14:32.228Z,7.34
2019-03-01T10:15:33.639Z,7.23
2019-03-01T10:16:35.185Z,7.33
2019-03-01T10:17:36.642Z,7.27
2019-03-01T10:18:38.292Z,7.29
2019-03-01T10:19:39.714Z,7.27
2019-03-01T10:20:41.242Z,7.26
2019-03-01T10:21:42.736Z,7.30
2019-03-01T10:22:44.200Z,7.27
2019-03-01T10:23:45.619Z,7.23
2019-03-01T10:24:47.023Z,7.32
2019-03-01T10:25:48.455Z,7.33
2019-03-01T10:26:49.863Z,7.33
2019-03-01T10:27:51.293Z,7.27
2019-03-01T10:28:52.721Z,7.30
2019-03-01T10:29:54.136Z,7.30
2019-03-01T10:30:55.549Z,7.47
2019-03-01T10:31:57.536Z,7.33
2019-03-01T10:32:58.286Z,7.44
2019-03-01T10:33:59.704Z,7.41
2019-03-01T10:35:01.079Z,7.47
2019-03-01T10:36:02.481Z,7.48
2019-03-01T10:37:03.879Z,7.60
2019-03-01T10:38:05.276Z,7.62
2019-03-01T10:39:07.652Z,7.62
2019-03-01T10:40:09.089Z,7.76
2019-03-01T10:41:10.493Z,7.76
2019-03-01T10:42:11.917Z,7.88
2019-03-01T10:43:13.329Z,7.95
2019-03-01T10:44:14.731Z,8.09
2019-03-01T10:45:16.124Z,8.06
2019-03-01T10:46:17.535Z,8.03
2019-03-01T10:47:18.934Z,8.07
2019-03-01T10:48:20.530Z,7.96
2019-03-01T10:49:22.054Z,8.10
2019-03-01T10:50:23.466Z,7.96
2019-03-01T10:51:24.866Z,7.92
2019-03-01T10:52:26.274Z,8.00
2019-03-01T10:53:27.722Z,8.04
2019-03-01T10:54:29.124Z,8.00
2019-03-01T10:55:30.528Z,8.03
2019-03-01T10:56:31.921Z,7.96
2019-03-01T10:57:33.339Z,7.96
2019-03-01T10:58:34.745Z,7.89
2019-03-01T10:59:36.129Z,7.91
2019-03-01T11:00:37.547Z,7.86
2019-03-01T11:01:38.963Z,7.82
2019-03-01T11:02:40.404Z,7.77
2019-03-01T11:03:41.795Z,7.77
2019-03-01T11:04:43.221Z,7.73
2019-03-01T11:05:44.641Z,7.81
2019-03-01T11:06:46.044Z,7.85
2019-03-01T11:07:47.463Z,7.86
2019-03-01T11:08:48.854Z,8.00
2019-03-01T11:09:50.277Z,8.12
2019-03-01T11:10:51.693Z,8.06
2019-03-01T11:11:53.086Z,8.02
2019-03-01T11:12:54.499Z,8.14
2019-03-01T11:13:55.916Z,8.17
2019-03-01T11:14:57.327Z,8.20
2019-03-01T11:15:58.756Z,8.22
2019-03-01T11:17:00.168Z,8.31
2019-03-01T11:18:01.584Z,8.28
2019-03-01T11:19:03.010Z,8.40
2019-03-01T11:20:04.422Z,8.37
2019-03-01T11:21:05.879Z,8.40
2019-03-01T11:22:07.282Z,8.36
2019-03-01T11:23:08.719Z,8.42
2019-03-01T11:24:10.110Z,8.32
2019-03-01T11:25:11.531Z,8.34
2019-03-01T11:26:12.934Z,8.32
2019-03-01T11:27:14.337Z,8.25
2019-03-01T11:28:15.759Z,8.28
2019-03-01T11:29:17.157Z,8.27
2019-03-01T11:30:18.553Z,8.21
2019-03-01T11:31:19.959Z,8.20
2019-03-01T11:32:21.375Z,8.27
2019-03-01T11:33:22.782Z,8.28
2019-03-01T11:34:24.195Z,8.31
2019-03-01T11:35:25.613Z,8.40
2019-03-01T11:36:27.018Z,8.37
2019-03-01T11:37:28.425Z,8.43
2019-03-01T11:38:29.835Z,8.42
2019-03-01T11:39:31.256Z,8.47
2019-03-01T11:40:32.701Z,8.42
2019-03-01T11:41:34.113Z,8.43
2019-03-01T11:42:35.519Z,8.57
2019-03-01T11:43:36.932Z,8.46
2019-03-01T11:44:38.355Z,8.52
2019-03-01T11:45:39.754Z,8.55
2019-03-01T11:46:41.154Z,8.50
2019-03-01T11:47:42.605Z,8.42
2019-03-01T11:48:43.965Z,8.43
2019-03-01T11:49:45.399Z,8.52
2019-03-01T11:50:46.806Z,8.43
2019-03-01T11:51:48.249Z,8.52
2019-03-01T11:52:49.682Z,8.55
2019-03-01T11:53:51.105Z,8.60
2019-03-01T11:54:52.531Z,8.57
2019-03-01T11:55:53.942Z,8.52
2019-03-01T11:56:55.350Z,8.54
2019-03-01T11:57:56.760Z,8.54
2019-03-01T11:58:58.237Z,8.61
2019-03-01T11:59:59.638Z,8.50
2019-03-01T12:01:01.045Z,8.55
2019-03-01T12:02:02.471Z,8.46
2019-03-01T12:03:03.884Z,8.49
2019-03-01T12:04:05.297Z,8.40
2019-03-01T12:05:06.696Z,8.46
2019-03-01T12:06:08.093Z,8.42
2019-03-01T12:07:09.496Z,8.31
2019-03-01T12:08:10.930Z,8.34
2019-03-01T12:09:12.351Z,8.36
2019-03-01T12:10:13.778Z,8.28
2019-03-01T12:11:15.181Z,8.25
2019-03-01T12:12:16.600Z,8.28
2019-03-01T12:13:18.019Z,8.14
2019-03-01T12:14:20.350Z,8.12
2019-03-01T12:15:21.760Z,8.12
2019-03-01T12:16:23.188Z,8.03
2019-03-01T12:17:24.649Z,8.07
2019-03-01T12:18:26.071Z,8.03
2019-03-01T12:19:27.497Z,8.02
2019-03-01T12:20:28.908Z,7.95
2019-03-01T12:21:30.291Z,8.04
2019-03-01T12:22:31.697Z,8.06
2019-03-01T12:23:33.137Z,7.95
2019-03-01T12:24:34.544Z,7.95
2019-03-01T12:25:35.949Z,8.02
2019-03-01T12:26:37.365Z,8.17
2019-03-01T12:27:38.793Z,8.10
2019-03-01T12:28:40.189Z,8.04
2019-03-01T12:29:41.615Z,7.95
2019-03-01T12:30:43.049Z,7.99
2019-03-01T12:31:44.446Z,7.96
2019-03-01T12:32:45.858Z,7.99
2019-03-01T12:33:47.276Z,8.04
2019-03-01T12:34:48.684Z,8.12
2019-03-01T12:35:50.113Z,8.04
2019-03-01T12:36:51.512Z,7.99
2019-03-01T12:37:52.941Z,8.06
2019-03-01T12:38:54.371Z,7.92
2019-03-01T12:39:55.758Z,8.04
2019-03-01T12:40:57.184Z,8.04
2019-03-01T12:41:58.621Z,8.07
2019-03-01T12:43:00.024Z,8.09
2019-03-01T12:44:01.423Z,7.95
2019-03-01T12:45:02.909Z,7.94
2019-03-01T12:46:04.334Z,8.00
2019-03-01T12:47:05.739Z,7.96
2019-03-01T12:48:07.169Z,7.92
2019-03-01T12:49:08.576Z,7.92
2019-03-01T12:50:10.010Z,7.89
2019-03-01T12:51:11.413Z,7.86
2019-03-01T12:52:12.815Z,7.88
2019-03-01T12:53:14.261Z,7.85
2019-03-01T12:54:15.717Z,7.77
2019-03-01T12:55:17.106Z,7.81
2019-03-01T12:56:18.519Z,7.71
2019-03-01T12:57:19.958Z,7.71
2019-03-01T12:58:21.379Z,7.76
2019-03-01T12:59:22.790Z,7.71
2019-03-01T13:00:24.219Z,7.70
2019-03-01T13:01:25.650Z,7.66
2019-03-01T13:02:27.068Z,7.58
2019-03-01T13:03:29.991Z,7.60
2019-03-01T13:04:29.884Z,7.67
2019-03-01T13:05:31.284Z,7.63
2019-03-01T13:06:35.346Z,7.54
2019-03-01T13:07:34.141Z,7.55
2019-03-01T13:08:35.582Z,7.55
2019-03-01T13:09:37.024Z,7.55
2019-03-01T13:10:40.236Z,7.45
2019-03-01T13:11:39.847Z,7.48
2019-03-01T13:12:41.261Z,7.48
2019-03-01T13:13:42.688Z,7.52
2019-03-01T13:14:44.125Z,7.41
2019-03-01T13:15:48.634Z,7.37
2019-03-01T13:16:47.000Z,7.41
2019-03-01T13:17:49.894Z,7.45
2019-03-01T13:18:51.295Z,7.39
2019-03-01T13:19:51.213Z,7.44
2019-03-01T13:20:52.679Z,7.48
2019-03-01T13:21:54.097Z,7.41
2019-03-01T13:22:55.504Z,7.37
2019-03-01T13:23:56.946Z,7.37
2019-03-01T13:24:58.390Z,7.32
2019-03-01T13:26:02.796Z,7.30
2019-03-01T13:27:01.188Z,7.34
2019-03-01T13:28:02.647Z,7.39
2019-03-01T13:29:04.070Z,7.36
2019-03-01T13:30:05.496Z,7.41
2019-03-01T13:31:08.185Z,7.33
2019-03-01T13:32:08.327Z,7.32
2019-03-01T13:33:09.838Z,7.33
2019-03-01T13:34:13.758Z,7.23
2019-03-01T13:35:12.714Z,7.26
2019-03-01T13:36:14.164Z,7.33
2019-03-01T13:37:19.365Z,7.16